createdAt,value
2018-11-12T00:00:12.780Z,1006.58
2018-11-12T00:01:12.743Z,1006.54
2018-11-12T00:02:12.716Z,1006.56
2018-11-12T00:03:12.685Z,1006.58
2018-11-12T00:04:12.645Z,1006.65
2018-11-12T00:05:12.609Z,1006.66
2018-11-12T00:06:12.575Z,1006.69
2018-11-12T00:07:12.540Z,1006.70
2018-11-12T00:08:12.532Z,1006.68
2018-11-12T00:09:12.481Z,1006.66
2018-11-12T00:10:12.439Z,1006.63
2018-11-12T00:11:12.402Z,1006.67
2018-11-12T00:12:12.366Z,1006.63
2018-11-12T00:13:12.333Z,1006.59
2018-11-12T00:14:12.319Z,1006.54
2018-11-12T00:15:12.283Z,1006.51
2018-11-12T00:16:12.237Z,1006.47
2018-11-12T00:17:12.199Z,1006.50
2018-11-12T00:18:12.195Z,1006.54
2018-11-12T00:19:12.149Z,1006.53
2018-11-12T00:20:12.110Z,1006.54
2018-11-12T00:21:12.080Z,1006.57
2018-11-12T00:22:12.031Z,1006.54
2018-11-12T00:23:12.011Z,1006.57
2018-11-12T00:24:11.991Z,1006.60
2018-11-12T00:25:11.935Z,1006.64
2018-11-12T00:26:11.895Z,1006.57
2018-11-12T00:27:11.869Z,1006.57
2018-11-12T00:28:11.835Z,1006.48
2018-11-12T00:29:11.802Z,1006.38
2018-11-12T00:30:11.768Z,1006.32
2018-11-12T00:31:11.726Z,1006.35
2018-11-12T00:32:11.689Z,1006.34
2018-11-12T00:33:11.660Z,1006.39
2018-11-12T00:34:11.643Z,1006.45
2018-11-12T00:35:11.596Z,1006.53
2018-11-12T00:36:11.553Z,1006.50
2018-11-12T00:37:11.527Z,1006.54
2018-11-12T00:38:11.488Z,1006.59
2018-11-12T00:39:11.460Z,1006.56
2018-11-12T00:40:11.428Z,1006.59
2018-11-12T00:41:11.384Z,1006.65
2018-11-12T00:42:11.354Z,1006.71
2018-11-12T00:43:11.316Z,1006.80
2018-11-12T00:44:11.303Z,1006.83
2018-11-12T00:45:11.264Z,1006.89
2018-11-12T00:46:11.212Z,1006.91
2018-11-12T00:47:11.189Z,1006.88
2018-11-12T00:48:11.148Z,1006.87
2018-11-12T00:49:11.140Z,1006.87
2018-11-12T00:50:11.098Z,1006.86
2018-11-12T00:51:11.046Z,1006.85
2018-11-12T00:52:11.018Z,1006.83
2018-11-12T00:53:10.985Z,1006.83
2018-11-12T00:54:10.959Z,1006.84
2018-11-12T00:55:10.916Z,1006.91
2018-11-12T00:56:10.875Z,1006.97
2018-11-12T00:57:10.843Z,1006.99
2018-11-12T00:58:10.803Z,1007.00
2018-11-12T00:59:10.793Z,1007.07
2018-11-12T01:00:10.752Z,1007.11
2018-11-12T01:01:10.708Z,1007.17
2018-11-12T01:02:10.687Z,1007.18
2018-11-12T01:03:10.638Z,1007.19
2018-11-12T01:04:10.641Z,1007.21
2018-11-12T01:05:10.578Z,1007.21
2018-11-12T01:06:10.542Z,1007.13
2018-11-12T01:07:10.511Z,1007.11
2018-11-12T01:08:10.475Z,1007.10
2018-11-12T01:09:10.446Z,1007.09
2018-11-12T01:10:10.413Z,1007.13
2018-11-12T01:11:10.369Z,1007.12
2018-11-12T01:12:10.339Z,1007.13
2018-11-12T01:13:10.307Z,1007.15
2018-11-12T01:14:10.280Z,1007.17
2018-11-12T01:15:10.246Z,1007.14
2018-11-12T01:16:10.263Z,1007.17
2018-11-12T01:17:10.165Z,1007.22
2018-11-12T01:18:10.127Z,1007.24
2018-11-12T01:19:10.113Z,1007.27
2018-11-12T01:20:10.078Z,1007.30
2018-11-12T01:21:10.035Z,1007.32
2018-11-12T01:22:09.995Z,1007.33
2018-11-12T01:23:09.972Z,1007.32
2018-11-12T01:24:09.946Z,1007.27
2018-11-12T01:25:09.899Z,1007.24
2018-11-12T01:26:09.866Z,1007.16
2018-11-12T01:27:09.823Z,1007.16
2018-11-12T01:28:09.796Z,1007.15
2018-11-12T01:29:09.782Z,1007.14
2018-11-12T01:30:09.738Z,1007.15
2018-11-12T01:31:09.692Z,1007.18
2018-11-12T01:32:09.657Z,1007.20
2018-11-12T01:33:09.623Z,1007.22
2018-11-12T01:34:09.601Z,1007.22
2018-11-12T01:35:09.563Z,1007.24
2018-11-12T01:36:09.528Z,1007.29
2018-11-12T01:37:10.485Z,1007.32
2018-11-12T01:38:09.451Z,1007.32
2018-11-12T01:39:09.432Z,1007.31
2018-11-12T01:40:09.393Z,1007.31
2018-11-12T01:41:09.355Z,1007.27
2018-11-12T01:42:09.356Z,1007.24
2018-11-12T01:43:09.283Z,1007.29
2018-11-12T01:44:09.271Z,1007.29
2018-11-12T01:45:09.234Z,1007.24
2018-11-12T01:46:09.181Z,1007.27
2018-11-12T01:47:09.154Z,1007.27
2018-11-12T01:48:09.130Z,1007.20
2018-11-12T01:49:09.089Z,1007.16
2018-11-12T01:50:09.063Z,1007.13
2018-11-12T01:51:09.015Z,1007.04
2018-11-12T01:52:08.982Z,1007.08
2018-11-12T01:53:08.948Z,1007.09
2018-11-12T01:54:08.914Z,1007.12
2018-11-12T01:55:08.896Z,1007.13
2018-11-12T01:56:08.844Z,1007.16
2018-11-12T01:57:08.812Z,1007.17
2018-11-12T01:58:08.775Z,1007.16
2018-11-12T01:59:08.746Z,1007.13
2018-11-12T02:00:08.722Z,1007.12
2018-11-12T02:01:08.680Z,1007.11
2018-11-12T02:02:08.651Z,1007.14
2018-11-12T02:03:08.622Z,1007.14
2018-11-12T02:04:08.593Z,1007.16
2018-11-12T02:05:08.554Z,1007.17
2018-11-12T02:06:08.505Z,1007.17
2018-11-12T02:07:08.486Z,1007.19
2018-11-12T02:08:08.466Z,1007.16
2018-11-12T02:09:08.491Z,1007.19
2018-11-12T02:10:08.381Z,1007.18
2018-11-12T02:11:08.338Z,1007.20
2018-11-12T02:12:08.312Z,1007.13
2018-11-12T02:13:08.281Z,1007.14
2018-11-12T02:14:08.240Z,1007.11
2018-11-12T02:15:08.229Z,1007.09
2018-11-12T02:16:08.166Z,1007.10
2018-11-12T02:17:08.137Z,1007.09
2018-11-12T02:18:08.104Z,1007.07
2018-11-12T02:19:08.067Z,1007.05
2018-11-12T02:20:08.043Z,1007.01
2018-11-12T02:21:07.990Z,1006.96
2018-11-12T02:22:07.964Z,1006.94
2018-11-12T02:23:07.932Z,1006.89
2018-11-12T02:24:07.897Z,1006.91
2018-11-12T02:25:07.908Z,1006.92
2018-11-12T02:26:07.826Z,1006.86
2018-11-12T02:27:07.791Z,1006.88
2018-11-12T02:28:07.768Z,1006.88
2018-11-12T02:29:07.738Z,1006.89
2018-11-12T02:30:07.721Z,1006.88
2018-11-12T02:31:07.674Z,1006.91
2018-11-12T02:32:07.631Z,1006.91
2018-11-12T02:33:07.619Z,1006.88
2018-11-12T02:34:07.565Z,1006.89
2018-11-12T02:35:07.546Z,1006.87
2018-11-12T02:36:07.497Z,1006.89
2018-11-12T02:37:07.480Z,1006.91
2018-11-12T02:38:07.420Z,1006.89
2018-11-12T02:39:07.399Z,1006.88
2018-11-12T02:40:07.372Z,1006.86
2018-11-12T02:41:07.319Z,1006.91
2018-11-12T02:42:07.292Z,1006.88
2018-11-12T02:43:07.249Z,1006.90
2018-11-12T02:44:07.227Z,1006.87
2018-11-12T02:45:07.199Z,1006.86
2018-11-12T02:46:07.151Z,1006.85
2018-11-12T02:47:07.123Z,1006.85
2018-11-12T02:48:07.079Z,1006.86
2018-11-12T02:49:07.040Z,1006.85
2018-11-12T02:50:07.025Z,1006.86
2018-11-12T02:51:06.987Z,1006.87
2018-11-12T02:52:06.960Z,1006.92
2018-11-12T02:53:06.914Z,1006.93
2018-11-12T02:54:06.879Z,1007.00
2018-11-12T02:55:06.857Z,1007.01
2018-11-12T02:56:06.808Z,1007.00
2018-11-12T02:57:06.774Z,1006.93
2018-11-12T02:58:06.754Z,1006.87
2018-11-12T02:59:06.716Z,1006.89
2018-11-12T03:00:06.714Z,1006.86
2018-11-12T03:01:06.641Z,1006.84
2018-11-12T03:02:06.611Z,1006.81
2018-11-12T03:03:06.574Z,1006.73
2018-11-12T03:04:06.557Z,1006.72
2018-11-12T03:05:06.500Z,1006.72
2018-11-12T03:06:06.488Z,1006.73
2018-11-12T03:07:06.429Z,1006.72
2018-11-12T03:08:06.398Z,1006.69
2018-11-12T03:09:06.364Z,1006.64
2018-11-12T03:10:06.331Z,1006.60
2018-11-12T03:11:06.304Z,1006.65
2018-11-12T03:12:06.267Z,1006.60
2018-11-12T03:13:06.229Z,1006.60
2018-11-12T03:14:06.198Z,1006.55
2018-11-12T03:15:06.160Z,1006.55
2018-11-12T03:16:06.139Z,1006.58
2018-11-12T03:17:06.090Z,1006.56
2018-11-12T03:18:06.057Z,1006.61
2018-11-12T03:19:06.535Z,1006.59
2018-11-12T03:20:05.989Z,1006.53
2018-11-12T03:21:05.962Z,1006.53
2018-11-12T03:22:06.534Z,1006.53
2018-11-12T03:23:05.898Z,1006.51
2018-11-12T03:24:05.864Z,1006.55
2018-11-12T03:25:05.821Z,1006.59
2018-11-12T03:26:05.798Z,1006.62
2018-11-12T03:27:05.755Z,1006.59
2018-11-12T03:28:05.719Z,1006.64
2018-11-12T03:29:05.687Z,1006.65
2018-11-12T03:30:05.650Z,1006.62
2018-11-12T03:31:05.629Z,1006.62
2018-11-12T03:32:05.580Z,1006.62
2018-11-12T03:33:05.554Z,1006.59
2018-11-12T03:34:05.524Z,1006.65
2018-11-12T03:35:05.484Z,1006.67
2018-11-12T03:36:05.480Z,1006.73
2018-11-12T03:37:05.417Z,1006.78
2018-11-12T03:38:05.386Z,1006.80
2018-11-12T03:39:05.361Z,1006.85
2018-11-12T03:40:05.313Z,1006.87
2018-11-12T03:41:05.298Z,1006.91
2018-11-12T03:42:05.263Z,1006.89
2018-11-12T03:43:05.211Z,1006.95
2018-11-12T03:44:05.176Z,1007.02
2018-11-12T03:45:05.148Z,1007.06
2018-11-12T03:46:05.121Z,1007.11
2018-11-12T03:47:05.073Z,1007.16
2018-11-12T03:48:05.037Z,1007.15
2018-11-12T03:49:05.008Z,1007.13
2018-11-12T03:50:04.977Z,1007.11
2018-11-12T03:51:04.962Z,1007.10
2018-11-12T03:52:04.906Z,1007.09
2018-11-12T03:53:04.874Z,1007.06
2018-11-12T03:54:04.853Z,1007.07
2018-11-12T03:55:04.804Z,1007.05
2018-11-12T03:56:04.782Z,1007.06
2018-11-12T03:57:04.734Z,1007.10
2018-11-12T03:58:04.700Z,1007.07
2018-11-12T03:59:04.669Z,1007.12
2018-11-12T04:00:04.642Z,1007.15
2018-11-12T04:01:04.622Z,1007.20
2018-11-12T04:02:04.568Z,1007.25
2018-11-12T04:03:04.529Z,1007.30
2018-11-12T04:04:04.505Z,1007.34
2018-11-12T04:05:04.467Z,1007.32
2018-11-12T04:06:04.452Z,1007.36
2018-11-12T04:07:05.060Z,1007.35
2018-11-12T04:08:04.364Z,1007.40
2018-11-12T04:09:04.329Z,1007.36
2018-11-12T04:10:04.296Z,1007.37
2018-11-12T04:11:04.272Z,1007.38
2018-11-12T04:12:04.231Z,1007.37
2018-11-12T04:13:04.194Z,1007.37
2018-11-12T04:14:04.160Z,1007.36
2018-11-12T04:15:04.126Z,1007.38
2018-11-12T04:16:04.104Z,1007.38
2018-11-12T04:17:04.060Z,1007.39
2018-11-12T04:18:04.025Z,1007.38
2018-11-12T04:19:03.986Z,1007.34
2018-11-12T04:20:03.957Z,1007.38
2018-11-12T04:21:03.963Z,1007.42
2018-11-12T04:22:03.894Z,1007.45
2018-11-12T04:23:03.858Z,1007.44
2018-11-12T04:24:03.826Z,1007.45
2018-11-12T04:25:03.790Z,1007.46
2018-11-12T04:26:03.758Z,1007.46
2018-11-12T04:27:04.571Z,1007.47
2018-11-12T04:28:03.687Z,1007.47
2018-11-12T04:29:03.653Z,1007.49
2018-11-12T04:30:03.625Z,1007.44
2018-11-12T04:31:03.588Z,1007.47
2018-11-12T04:32:03.562Z,1007.51
2018-11-12T04:33:03.517Z,1007.51
2018-11-12T04:34:03.480Z,1007.47
2018-11-12T04:35:03.461Z,1007.45
2018-11-12T04:36:03.416Z,1007.46
2018-11-12T04:37:03.403Z,1007.39
2018-11-12T04:38:03.351Z,1007.39
2018-11-12T04:39:03.314Z,1007.37
2018-11-12T04:40:03.283Z,1007.37
2018-11-12T04:41:03.249Z,1007.33
2018-11-12T04:42:03.220Z,1007.32
2018-11-12T04:43:03.182Z,1007.35
2018-11-12T04:44:03.158Z,1007.37
2018-11-12T04:45:03.114Z,1007.41
2018-11-12T04:46:03.076Z,1007.41
2018-11-12T04:47:03.067Z,1007.37
2018-11-12T04:48:03.009Z,1007.38
2018-11-12T04:49:02.978Z,1007.37
2018-11-12T04:50:02.941Z,1007.32
2018-11-12T04:51:02.908Z,1007.28
2018-11-12T04:52:02.883Z,1007.31
2018-11-12T04:53:02.850Z,1007.25
2018-11-12T04:54:02.809Z,1007.28
2018-11-12T04:55:02.793Z,1007.25
2018-11-12T04:56:02.742Z,1007.25
2018-11-12T04:57:02.717Z,1007.23
2018-11-12T04:58:02.671Z,1007.20
2018-11-12T04:59:02.638Z,1007.23
2018-11-12T05:00:02.603Z,1007.23
2018-11-12T05:01:02.573Z,1007.21
2018-11-12T05:02:02.602Z,1007.19
2018-11-12T05:03:02.507Z,1007.20
2018-11-12T05:04:02.464Z,1007.18
2018-11-12T05:05:02.437Z,1007.13
2018-11-12T05:06:02.400Z,1007.08
2018-11-12T05:07:02.376Z,1007.05
2018-11-12T05:08:02.335Z,1007.04
2018-11-12T05:09:02.302Z,1007.02
2018-11-12T05:10:03.085Z,1007.02
2018-11-12T05:11:02.231Z,1007.05
2018-11-12T05:12:02.204Z,1007.03
2018-11-12T05:13:02.162Z,1007.00
2018-11-12T05:14:02.133Z,1007.04
2018-11-12T05:15:02.096Z,1007.04
2018-11-12T05:16:02.062Z,1007.08
2018-11-12T05:17:02.039Z,1007.04
2018-11-12T05:18:01.996Z,1007.02
2018-11-12T05:19:01.961Z,1007.00
2018-11-12T05:20:01.928Z,1006.95
2018-11-12T05:21:01.894Z,1006.93
2018-11-12T05:22:01.867Z,1006.91
2018-11-12T05:23:01.827Z,1006.94
2018-11-12T05:24:01.791Z,1006.94
2018-11-12T05:25:01.758Z,1006.95
2018-11-12T05:26:01.726Z,1006.96
2018-11-12T05:27:01.700Z,1006.94
2018-11-12T05:28:01.663Z,1006.98
2018-11-12T05:29:01.621Z,1006.91
2018-11-12T05:30:01.589Z,1006.88
2018-11-12T05:31:01.558Z,1006.84
2018-11-12T05:32:01.528Z,1006.82
2018-11-12T05:33:01.486Z,1006.79
2018-11-12T05:34:01.450Z,1006.78
2018-11-12T05:35:01.417Z,1006.77
2018-11-12T05:36:01.397Z,1006.76
2018-11-12T05:37:01.362Z,1006.78
2018-11-12T05:38:01.373Z,1006.81
2018-11-12T05:39:01.277Z,1006.87
2018-11-12T05:40:01.248Z,1006.90
2018-11-12T05:41:01.217Z,1006.98
2018-11-12T05:42:01.185Z,1006.99
2018-11-12T05:43:01.146Z,1007.02
2018-11-12T05:44:01.112Z,1007.05
2018-11-12T05:45:01.148Z,1007.06
2018-11-12T05:46:01.046Z,1007.05
2018-11-12T05:47:01.020Z,1007.05
2018-11-12T05:48:00.983Z,1007.04
2018-11-12T05:49:00.953Z,1007.04
2018-11-12T05:50:00.908Z,1007.00
2018-11-12T05:51:00.880Z,1007.03
2018-11-12T05:52:00.876Z,1007.06
2018-11-12T05:53:00.810Z,1007.03
2018-11-12T05:54:00.774Z,1007.01
2018-11-12T05:55:00.757Z,1007.00
2018-11-12T05:56:00.704Z,1006.95
2018-11-12T05:57:00.695Z,1006.99
2018-11-12T05:58:00.653Z,1006.96
2018-11-12T05:59:00.639Z,1006.93
2018-11-12T06:00:00.571Z,1006.91
2018-11-12T06:01:00.558Z,1006.83
2018-11-12T06:02:00.509Z,1006.82
2018-11-12T06:03:00.481Z,1006.82
2018-11-12T06:04:00.484Z,1006.82
2018-11-12T06:05:00.516Z,1006.86
2018-11-12T06:06:00.396Z,1006.87
2018-11-12T06:07:00.341Z,1006.99
2018-11-12T06:08:00.317Z,1007.07
2018-11-12T06:09:00.263Z,1007.05
2018-11-12T06:10:00.236Z,1007.04
2018-11-12T06:11:00.208Z,1006.99
2018-11-12T06:12:00.169Z,1007.04
2018-11-12T06:13:00.138Z,1007.07
2018-11-12T06:14:00.093Z,1007.08
2018-11-12T06:15:00.064Z,1007.07
2018-11-12T06:16:00.036Z,1007.04
2018-11-12T06:16:59.995Z,1007.04
2018-11-12T06:17:59.966Z,1007.06
2018-11-12T06:18:59.923Z,1007.04
2018-11-12T06:19:59.887Z,1006.95
2018-11-12T06:20:59.860Z,1006.85
2018-11-12T06:21:59.830Z,1006.80
2018-11-12T06:22:59.819Z,1006.79
2018-11-12T06:23:59.758Z,1006.77
2018-11-12T06:24:59.731Z,1006.82
2018-11-12T06:25:59.693Z,1006.75
2018-11-12T06:26:59.662Z,1006.77
2018-11-12T06:27:59.624Z,1006.80
2018-11-12T06:28:59.602Z,1006.76
2018-11-12T06:29:59.547Z,1006.74
2018-11-12T06:30:59.547Z,1006.77
2018-11-12T06:31:59.500Z,1006.79
2018-11-12T06:32:59.459Z,1006.71
2018-11-12T06:33:59.426Z,1006.70
2018-11-12T06:34:59.381Z,1006.73
2018-11-12T06:35:59.361Z,1006.72
2018-11-12T06:36:59.324Z,1006.76
2018-11-12T06:37:59.290Z,1006.83
2018-11-12T06:38:59.259Z,1006.87
2018-11-12T06:39:59.213Z,1006.96
2018-11-12T06:40:59.179Z,1006.98
2018-11-12T06:41:59.155Z,1006.99
2018-11-12T06:42:59.172Z,1007.00
2018-11-12T06:43:59.073Z,1006.98
2018-11-12T06:44:59.038Z,1006.99
2018-11-12T06:45:59.022Z,1007.00
2018-11-12T06:46:58.984Z,1007.01
2018-11-12T06:47:58.962Z,1007.01
2018-11-12T06:48:58.911Z,1006.97
2018-11-12T06:49:58.884Z,1006.96
2018-11-12T06:50:58.862Z,1006.94
2018-11-12T06:51:58.828Z,1007.00
2018-11-12T06:52:58.854Z,1006.99
2018-11-12T06:53:58.740Z,1006.96
2018-11-12T06:54:58.712Z,1006.98
2018-11-12T06:55:58.700Z,1006.96
2018-11-12T06:56:58.676Z,1007.03
2018-11-12T06:57:58.612Z,1007.06
2018-11-12T06:58:58.586Z,1007.14
2018-11-12T06:59:58.565Z,1007.13
2018-11-12T07:00:58.619Z,1007.20
2018-11-12T07:01:58.510Z,1007.11
2018-11-12T07:02:58.460Z,1007.08
2018-11-12T07:03:58.423Z,1007.06
2018-11-12T07:04:58.403Z,1007.16
2018-11-12T07:05:58.381Z,1007.24
2018-11-12T07:06:58.378Z,1007.32
2018-11-12T07:07:58.266Z,1007.31
2018-11-12T07:08:58.295Z,1007.30
2018-11-12T07:09:58.186Z,1007.22
2018-11-12T07:10:58.160Z,1007.11
2018-11-12T07:11:58.140Z,1007.06
2018-11-12T07:12:58.127Z,1007.01
2018-11-12T07:13:58.080Z,1007.07
2018-11-12T07:14:58.038Z,1007.14
2018-11-12T07:15:58.000Z,1007.23
2018-11-12T07:16:57.960Z,1007.26
2018-11-12T07:17:57.927Z,1007.22
2018-11-12T07:18:57.962Z,1007.13
2018-11-12T07:19:57.859Z,1007.05
2018-11-12T07:20:57.840Z,1007.06
2018-11-12T07:21:57.805Z,1007.09
2018-11-12T07:22:57.752Z,1007.16
2018-11-12T07:23:57.721Z,1007.23
2018-11-12T07:24:57.722Z,1007.18
2018-11-12T07:25:57.640Z,1007.19
2018-11-12T07:26:57.631Z,1007.14
2018-11-12T07:27:57.607Z,1007.11
2018-11-12T07:28:57.547Z,1007.17
2018-11-12T07:29:57.529Z,1007.22
2018-11-12T07:30:57.548Z,1007.27
2018-11-12T07:31:57.457Z,1007.31
2018-11-12T07:32:57.412Z,1007.30
2018-11-12T07:33:57.379Z,1007.29
2018-11-12T07:34:57.353Z,1007.31
2018-11-12T07:35:57.313Z,1007.26
2018-11-12T07:36:57.275Z,1007.29
2018-11-12T07:37:57.253Z,1007.34
2018-11-12T07:38:57.214Z,1007.38
2018-11-12T07:39:57.193Z,1007.41
2018-11-12T07:40:57.140Z,1007.32
2018-11-12T07:41:57.113Z,1007.29
2018-11-12T07:42:57.078Z,1007.18
2018-11-12T07:43:57.108Z,1007.18
2018-11-12T07:44:57.003Z,1007.15
2018-11-12T07:45:56.985Z,1007.12
2018-11-12T07:46:56.935Z,1007.10
2018-11-12T07:47:56.901Z,1007.10
2018-11-12T07:48:57.692Z,1007.09
2018-11-12T07:49:56.832Z,1007.07
2018-11-12T07:50:56.838Z,1007.08
2018-11-12T07:51:56.764Z,1007.06
2018-11-12T07:52:56.743Z,1007.10
2018-11-12T07:53:56.696Z,1007.07
2018-11-12T07:54:56.671Z,1007.06
2018-11-12T07:55:56.644Z,1007.08
2018-11-12T07:56:56.612Z,1007.04
2018-11-12T07:57:56.586Z,1007.02
2018-11-12T07:58:56.547Z,1007.01
2018-11-12T07:59:56.496Z,1007.00
2018-11-12T08:00:56.475Z,1006.93
2018-11-12T08:01:56.468Z,1006.92
2018-11-12T08:02:56.427Z,1006.84
2018-11-12T08:03:56.380Z,1006.83
2018-11-12T08:04:56.381Z,1006.83
2018-11-12T08:05:56.321Z,1006.82
2018-11-12T08:06:56.280Z,1006.82
2018-11-12T08:07:56.275Z,1006.81
2018-11-12T08:08:56.194Z,1006.81
2018-11-12T08:09:56.156Z,1006.80
2018-11-12T08:10:56.154Z,1006.81
2018-11-12T08:11:56.108Z,1006.78
2018-11-12T08:12:56.057Z,1006.76
2018-11-12T08:13:56.057Z,1006.73
2018-11-12T08:14:56.715Z,1006.71
2018-11-12T08:15:55.981Z,1006.69
2018-11-12T08:16:55.933Z,1006.67
2018-11-12T08:17:55.886Z,1006.72
2018-11-12T08:18:55.853Z,1006.72
2018-11-12T08:19:55.820Z,1006.74
2018-11-12T08:20:55.788Z,1006.70
2018-11-12T08:21:55.792Z,1006.66
2018-11-12T08:22:55.751Z,1006.64
2018-11-12T08:23:55.740Z,1006.64
2018-11-12T08:24:55.654Z,1006.68
2018-11-12T08:25:55.625Z,1006.61
2018-11-12T08:26:55.616Z,1006.59
2018-11-12T08:27:55.562Z,1006.60
2018-11-12T08:28:55.519Z,1006.61
2018-11-12T08:29:55.684Z,1006.54
2018-11-12T08:30:55.466Z,1006.59
2018-11-12T08:31:55.439Z,1006.65
2018-11-12T08:32:55.437Z,1006.68
2018-11-12T08:33:55.348Z,1006.69
2018-11-12T08:34:55.317Z,1006.68
2018-11-12T08:35:55.283Z,1006.69
2018-11-12T08:36:55.260Z,1006.71
2018-11-12T08:37:55.219Z,1006.72
2018-11-12T08:38:55.188Z,1006.69
2018-11-12T08:39:55.210Z,1006.73
2018-11-12T08:40:55.250Z,1006.76
2018-11-12T08:41:55.115Z,1006.76
2018-11-12T08:42:55.057Z,1006.70
2018-11-12T08:43:55.016Z,1006.65
2018-11-12T08:44:54.983Z,1006.61
2018-11-12T08:45:54.962Z,1006.66
2018-11-12T08:46:54.922Z,1006.65
2018-11-12T08:47:54.907Z,1006.62
2018-11-12T08:48:54.865Z,1006.50
2018-11-12T08:49:54.838Z,1006.50
2018-11-12T08:50:54.780Z,1006.57
2018-11-12T08:51:54.755Z,1006.59
2018-11-12T08:52:54.729Z,1006.62
2018-11-12T08:53:54.685Z,1006.58
2018-11-12T08:54:54.664Z,1006.52
2018-11-12T08:55:54.619Z,1006.46
2018-11-12T08:56:54.583Z,1006.43
2018-11-12T08:57:54.672Z,1006.51
2018-11-12T08:58:54.535Z,1006.54
2018-11-12T08:59:54.477Z,1006.50
2018-11-12T09:00:54.583Z,1006.49
2018-11-12T09:01:54.414Z,1006.45
2018-11-12T09:02:54.393Z,1006.43
2018-11-12T09:03:54.374Z,1006.38
2018-11-12T09:04:55.223Z,1006.33
2018-11-12T09:05:54.373Z,1006.36
2018-11-12T09:06:54.248Z,1006.41
2018-11-12T09:07:54.229Z,1006.45
2018-11-12T09:08:54.182Z,1006.45
2018-11-12T09:09:54.192Z,1006.38
2018-11-12T09:10:54.109Z,1006.32
2018-11-12T09:11:54.085Z,1006.33
2018-11-12T09:12:54.084Z,1006.29
2018-11-12T09:13:54.005Z,1006.25
2018-11-12T09:14:53.972Z,1006.23
2018-11-12T09:15:54.072Z,1006.25
2018-11-12T09:16:53.911Z,1006.26
2018-11-12T09:17:53.911Z,1006.32
2018-11-12T09:18:53.860Z,1006.34
2018-11-12T09:19:53.806Z,1006.28
2018-11-12T09:20:53.780Z,1006.19
2018-11-12T09:21:53.772Z,1006.25
2018-11-12T09:22:53.713Z,1006.28
2018-11-12T09:23:53.693Z,1006.28
2018-11-12T09:24:53.664Z,1006.33
2018-11-12T09:25:53.612Z,1006.29
2018-11-12T09:26:53.589Z,1006.29
2018-11-12T09:27:53.580Z,1006.37
2018-11-12T09:28:53.543Z,1006.38
2018-11-12T09:29:53.489Z,1006.38
2018-11-12T09:30:54.691Z,1006.38
2018-11-12T09:31:53.409Z,1006.33
2018-11-12T09:32:53.424Z,1006.30
2018-11-12T09:33:53.371Z,1006.34
2018-11-12T09:34:53.336Z,1006.32
2018-11-12T09:35:53.301Z,1006.36
2018-11-12T09:36:53.356Z,1006.45
2018-11-12T09:37:53.206Z,1006.49
2018-11-12T09:38:53.379Z,1006.44
2018-11-12T09:39:53.149Z,1006.47
2018-11-12T09:40:53.112Z,1006.47
2018-11-12T09:41:53.079Z,1006.47
2018-11-12T09:42:53.041Z,1006.29
2018-11-12T09:43:53.022Z,1006.14
2018-11-12T09:44:52.983Z,1006.13
2018-11-12T09:45:53.021Z,1006.18
2018-11-12T09:46:52.921Z,1006.10
2018-11-12T09:47:53.058Z,1006.13
2018-11-12T09:48:52.906Z,1006.12
2018-11-12T09:49:52.823Z,1006.13
2018-11-12T09:50:52.786Z,1006.19
2018-11-12T09:51:52.753Z,1006.16
2018-11-12T09:52:52.735Z,1006.23
2018-11-12T09:53:52.861Z,1006.24
2018-11-12T09:54:52.720Z,1006.23
2018-11-12T09:55:52.628Z,1006.23
2018-11-12T09:56:52.588Z,1006.28
2018-11-12T09:57:52.557Z,1006.29
2018-11-12T09:58:52.519Z,1006.28
2018-11-12T09:59:52.568Z,1006.19
2018-11-12T10:00:52.698Z,1006.21
2018-11-12T10:01:53.440Z,1006.12
2018-11-12T10:02:53.357Z,1006.04
2018-11-12T10:03:53.280Z,1006.12
2018-11-12T10:04:53.979Z,1006.16
2018-11-12T10:05:53.611Z,1006.20
2018-11-12T10:06:54.041Z,1006.19
2018-11-12T10:07:54.592Z,1006.20
2018-11-12T10:08:54.121Z,1006.19
2018-11-12T10:09:54.303Z,1006.11
2018-11-12T10:10:55.019Z,1006.09
2018-11-12T10:11:53.774Z,1006.06
2018-11-12T10:12:53.407Z,1006.01
2018-11-12T10:13:55.250Z,1006.00
2018-11-12T10:14:54.851Z,1006.00
2018-11-12T10:15:54.235Z,1006.00
2018-11-12T10:16:54.602Z,1005.96
2018-11-12T10:17:53.862Z,1005.90
2018-11-12T10:18:51.874Z,1005.95
2018-11-12T10:19:51.859Z,1005.98
2018-11-12T10:20:51.815Z,1005.94
2018-11-12T10:21:51.780Z,1005.99
2018-11-12T10:22:51.753Z,1006.02
2018-11-12T10:23:51.715Z,1006.03
2018-11-12T10:24:51.701Z,1006.01
2018-11-12T10:25:51.658Z,1006.07
2018-11-12T10:26:51.614Z,1006.07
2018-11-12T10:27:51.589Z,1006.10
2018-11-12T10:28:51.555Z,1006.20
2018-11-12T10:29:51.542Z,1006.10
2018-11-12T10:30:51.501Z,1006.17
2018-11-12T10:31:51.454Z,1006.25
2018-11-12T10:32:51.429Z,1006.19
2018-11-12T10:33:51.442Z,1006.28
2018-11-12T10:34:51.360Z,1006.27
2018-11-12T10:35:51.344Z,1006.15
2018-11-12T10:36:51.302Z,1006.12
2018-11-12T10:37:51.269Z,1006.11
2018-11-12T10:38:51.245Z,1006.03
2018-11-12T10:39:51.264Z,1005.94
2018-11-12T10:40:51.237Z,1006.04
2018-11-12T10:41:51.157Z,1006.10
2018-11-12T10:42:51.159Z,1006.09
2018-11-12T10:43:51.080Z,1006.07
2018-11-12T10:44:51.049Z,1006.11
2018-11-12T10:45:51.037Z,1006.10
2018-11-12T10:46:50.993Z,1006.08
2018-11-12T10:47:51.001Z,1006.05
2018-11-12T10:48:50.925Z,1006.02
2018-11-12T10:49:50.896Z,1005.98
2018-11-12T10:50:56.375Z,1005.93
2018-11-12T10:51:50.826Z,1005.87
2018-11-12T10:52:50.800Z,1005.85
2018-11-12T10:53:50.805Z,1005.90
2018-11-12T10:55:04.892Z,1005.89
2018-11-12T10:55:50.830Z,1005.93
2018-11-12T10:56:50.669Z,1005.96
2018-11-12T10:57:50.634Z,1005.96
2018-11-12T10:58:50.609Z,1006.00
2018-11-12T10:59:50.596Z,1006.05
2018-11-12T11:00:50.599Z,1006.10
2018-11-12T11:01:50.513Z,1006.07
2018-11-12T11:02:50.467Z,1006.05
2018-11-12T11:03:50.450Z,1006.08
2018-11-12T11:04:50.419Z,1006.10
2018-11-12T11:05:50.411Z,1006.16
2018-11-12T11:06:50.352Z,1006.19
2018-11-12T11:07:50.320Z,1006.11
2018-11-12T11:08:50.297Z,1006.06
2018-11-12T11:09:50.252Z,1006.09
2018-11-12T11:10:50.225Z,1006.08
2018-11-12T11:11:50.189Z,1006.02
2018-11-12T11:12:50.180Z,1006.04
2018-11-12T11:13:50.213Z,1005.95
2018-11-12T11:14:50.107Z,1005.94
2018-11-12T11:15:50.113Z,1005.94
2018-11-12T11:16:50.047Z,1005.97
2018-11-12T11:17:50.027Z,1006.01
2018-11-12T11:18:49.962Z,1006.05
2018-11-12T11:19:49.956Z,1006.09
2018-11-12T11:20:49.920Z,1006.12
2018-11-12T11:21:49.878Z,1006.03
2018-11-12T11:22:49.838Z,1006.05
2018-11-12T11:23:49.830Z,1006.11
2018-11-12T11:24:49.779Z,1006.04
2018-11-12T11:25:49.775Z,1006.07
2018-11-12T11:26:49.736Z,1006.05
2018-11-12T11:27:49.675Z,1006.14
2018-11-12T11:28:49.649Z,1006.15
2018-11-12T11:29:49.631Z,1006.11
2018-11-12T11:30:49.583Z,1006.12
2018-11-12T11:31:49.614Z,1006.15
2018-11-12T11:32:49.512Z,1006.21
2018-11-12T11:33:49.484Z,1006.23
2018-11-12T11:34:49.454Z,1006.21
2018-11-12T11:35:49.430Z,1006.21
2018-11-12T11:36:49.410Z,1006.27
2018-11-12T11:37:49.396Z,1006.25
2018-11-12T11:38:49.322Z,1006.26
2018-11-12T11:39:49.328Z,1006.26
2018-11-12T11:40:49.264Z,1006.26
2018-11-12T11:41:49.262Z,1006.29
2018-11-12T11:42:49.215Z,1006.31
2018-11-12T11:43:49.197Z,1006.30
2018-11-12T11:44:49.138Z,1006.32
2018-11-12T11:45:49.105Z,1006.30
2018-11-12T11:46:49.075Z,1006.33
2018-11-12T11:47:49.232Z,1006.28
2018-11-12T11:48:49.017Z,1006.25
2018-11-12T11:49:48.976Z,1006.19
2018-11-12T11:50:48.936Z,1006.20
2018-11-12T11:51:48.915Z,1006.13
2018-11-12T11:52:48.890Z,1006.13
2018-11-12T11:53:48.838Z,1006.15
2018-11-12T11:54:48.815Z,1006.17
2018-11-12T11:55:48.800Z,1006.18
2018-11-12T11:56:48.956Z,1006.15
2018-11-12T11:57:48.729Z,1006.16
2018-11-12T11:58:48.687Z,1006.18
2018-11-12T11:59:48.647Z,1006.19
2018-11-12T12:00:48.628Z,1006.18
2018-11-12T12:01:48.589Z,1006.17
2018-11-12T12:02:48.630Z,1006.15
2018-11-12T12:03:48.535Z,1006.17
2018-11-12T12:04:48.506Z,1006.18